createdAt,value
2019-03-21T00:02:05.852Z,50.05
2019-03-21T00:04:31.707Z,50.04
2019-03-21T00:06:57.534Z,50.35
2019-03-21T00:09:23.407Z,50.38
2019-03-21T00:12:00.380Z,50.28
2019-03-21T00:14:30.221Z,49.21
2019-03-21T00:16:56.194Z,48.86
2019-03-21T00:19:22.055Z,48.89
2019-03-21T00:21:47.870Z,49.34
2019-03-21T00:24:13.900Z,49.55
2019-03-21T00:26:39.852Z,49.35
2019-03-21T00:29:05.707Z,49.40
2019-03-21T00:31:31.532Z,49.63
2019-03-21T00:33:59.491Z,49.87
2019-03-21T00:36:25.343Z,49.61
2019-03-21T00:38:51.444Z,50.05
2019-03-21T00:41:17.365Z,50.16
2019-03-21T00:43:43.290Z,50.29
2019-03-21T00:46:09.149Z,50.62
2019-03-21T00:48:35.079Z,50.65
2019-03-21T00:51:00.996Z,50.48
2019-03-21T00:53:26.860Z,50.70
2019-03-21T00:55:56.495Z,50.10
2019-03-21T00:58:22.660Z,50.06
2019-03-21T01:00:51.577Z,50.42
2019-03-21T01:03:17.461Z,50.63
2019-03-21T01:05:43.395Z,50.69
2019-03-21T01:08:09.333Z,50.77
2019-03-21T01:10:35.406Z,50.61
2019-03-21T01:13:01.347Z,50.22
2019-03-21T01:15:27.275Z,50.55
2019-03-21T01:17:53.257Z,50.90
2019-03-21T01:20:19.100Z,50.94
2019-03-21T01:22:45.302Z,51.07
2019-03-21T01:25:42.497Z,51.56
2019-03-21T01:28:08.453Z,51.96
2019-03-21T01:30:34.452Z,52.34
2019-03-21T01:33:00.309Z,52.13
2019-03-21T01:35:26.144Z,52.27
2019-03-21T01:37:51.987Z,52.49
2019-03-21T01:40:27.476Z,52.63
2019-03-21T01:42:53.390Z,52.73
2019-03-21T01:45:22.213Z,53.13
2019-03-21T01:47:49.256Z,53.09
2019-03-21T01:50:17.709Z,52.84
2019-03-21T01:52:43.900Z,52.67
2019-03-21T01:55:11.408Z,52.30
2019-03-21T01:57:37.652Z,52.47
2019-03-21T02:00:07.426Z,52.39
2019-03-21T02:02:33.402Z,52.15
2019-03-21T02:04:59.409Z,52.47
2019-03-21T02:07:25.248Z,52.67
2019-03-21T02:09:51.062Z,52.58
2019-03-21T02:12:16.953Z,52.85
2019-03-21T02:14:51.803Z,53.22
2019-03-21T02:17:10.518Z,53.35
2019-03-21T02:19:36.543Z,53.43
2019-03-21T02:22:02.627Z,53.59
2019-03-21T02:24:28.567Z,53.87
2019-03-21T02:26:54.461Z,54.20
2019-03-21T02:29:20.400Z,54.36
2019-03-21T02:31:46.224Z,54.40
2019-03-21T02:34:12.278Z,54.60
2019-03-21T02:36:38.116Z,54.35
2019-03-21T02:39:05.153Z,54.47
2019-03-21T02:41:31.192Z,54.33
2019-03-21T02:43:57.159Z,54.33
2019-03-21T02:46:23.250Z,54.26
2019-03-21T02:48:49.344Z,53.73
2019-03-21T02:51:15.305Z,53.74
2019-03-21T02:53:41.282Z,54.02
2019-03-21T02:56:13.917Z,53.87
2019-03-21T02:58:39.820Z,54.21
2019-03-21T03:01:05.890Z,54.51
2019-03-21T03:03:31.855Z,54.21
2019-03-21T03:05:57.759Z,54.35
2019-03-21T03:08:23.599Z,54.45
2019-03-21T03:10:55.702Z,54.47
2019-03-21T03:13:21.678Z,54.86
2019-03-21T03:15:47.518Z,54.83
2019-03-21T03:18:15.359Z,55.07
2019-03-21T03:20:44.840Z,55.38
2019-03-21T03:23:10.912Z,55.38
2019-03-21T03:25:36.877Z,55.01
2019-03-21T03:28:09.475Z,55.01
2019-03-21T03:30:35.310Z,55.60
2019-03-21T03:33:01.277Z,55.83
2019-03-21T03:35:27.389Z,56.06
2019-03-21T03:37:53.491Z,56.28
2019-03-21T03:40:26.022Z,55.81
2019-03-21T03:42:52.008Z,55.43
2019-03-21T03:45:20.937Z,55.43
2019-03-21T03:47:47.066Z,55.04
2019-03-21T03:50:12.907Z,55.33
2019-03-21T03:52:40.870Z,55.33
2019-03-21T03:55:10.560Z,55.21
2019-03-21T03:57:36.565Z,55.24
2019-03-21T04:00:06.224Z,54.83
2019-03-21T04:02:32.313Z,54.83
2019-03-21T04:04:58.238Z,54.78
2019-03-21T04:07:24.297Z,54.69
2019-03-21T04:09:50.338Z,55.33
2019-03-21T04:12:16.294Z,55.33
2019-03-21T04:14:42.267Z,55.37
2019-03-21T04:17:08.085Z,55.53
2019-03-21T04:19:33.926Z,55.18
2019-03-21T04:22:02.550Z,55.83
2019-03-21T04:24:28.546Z,56.27
2019-03-21T04:26:54.599Z,56.79
2019-03-21T04:29:20.440Z,56.79
2019-03-21T04:31:46.401Z,56.62
2019-03-21T04:34:12.245Z,56.22
2019-03-21T04:36:38.077Z,55.78
2019-03-21T04:39:06.331Z,55.89
2019-03-21T04:41:32.210Z,56.09
2019-03-21T04:43:58.274Z,56.09
2019-03-21T04:46:24.139Z,56.34
2019-03-21T04:48:49.978Z,56.34
2019-03-21T04:51:15.831Z,56.54
2019-03-21T04:53:41.677Z,56.93
2019-03-21T04:56:07.861Z,57.12
2019-03-21T04:58:33.801Z,57.40
2019-03-21T05:00:59.856Z,57.66
2019-03-21T05:03:29.783Z,57.67
2019-03-21T05:05:55.833Z,57.67
2019-03-21T05:08:21.896Z,57.43
2019-03-21T05:10:47.834Z,57.36
2019-03-21T05:13:13.674Z,57.46
2019-03-21T05:15:44.570Z,57.36
2019-03-21T05:18:16.522Z,57.14
2019-03-21T05:20:42.474Z,57.28
2019-03-21T05:23:08.364Z,57.17
2019-03-21T05:25:34.309Z,57.35
2019-03-21T05:28:00.155Z,57.05
2019-03-21T05:30:35.731Z,57.11
2019-03-21T05:33:01.731Z,56.97
2019-03-21T05:35:27.572Z,56.52
2019-03-21T05:37:53.402Z,56.34
2019-03-21T05:40:19.671Z,55.99
2019-03-21T05:42:55.149Z,56.05
2019-03-21T05:45:22.724Z,56.45
2019-03-21T05:47:48.580Z,56.24
2019-03-21T05:50:16.021Z,56.14
2019-03-21T05:52:42.080Z,56.32
2019-03-21T05:55:09.712Z,56.71
2019-03-21T05:57:35.691Z,56.85
2019-03-21T06:00:04.252Z,56.85
2019-03-21T06:02:30.066Z,56.64
2019-03-21T06:04:55.896Z,56.64
2019-03-21T06:07:25.621Z,56.47
2019-03-21T06:09:51.481Z,56.53
2019-03-21T06:12:17.333Z,56.02
2019-03-21T06:14:52.834Z,55.96
2019-03-21T06:17:18.687Z,55.69
2019-03-21T06:19:48.366Z,55.69
2019-03-21T06:22:27.039Z,55.73
2019-03-21T06:25:15.943Z,55.73
2019-03-21T06:27:42.000Z,54.78
2019-03-21T06:30:08.558Z,54.78
2019-03-21T06:32:34.470Z,54.38
2019-03-21T06:35:00.394Z,54.38
2019-03-21T06:37:28.586Z,54.13
2019-03-21T06:39:54.481Z,53.76
2019-03-21T06:42:20.331Z,53.56
2019-03-21T06:44:46.154Z,52.98
2019-03-21T06:47:12.112Z,52.76
2019-03-21T06:49:38.029Z,52.79
2019-03-21T06:52:04.177Z,52.50
2019-03-21T06:54:30.027Z,52.22
2019-03-21T06:56:55.884Z,52.32
2019-03-21T06:59:21.781Z,51.67
2019-03-21T07:01:47.811Z,51.50
2019-03-21T07:04:13.663Z,51.36
2019-03-21T07:06:39.710Z,50.83
2019-03-21T07:09:06.660Z,50.06
2019-03-21T07:11:32.496Z,50.13
2019-03-21T07:13:58.469Z,50.08
2019-03-21T07:16:24.309Z,49.83
2019-03-21T07:18:50.242Z,49.64
2019-03-21T07:21:16.181Z,49.20
2019-03-21T07:23:45.250Z,49.17
2019-03-21T07:26:11.195Z,48.82
2019-03-21T07:28:38.647Z,48.71
2019-03-21T07:31:04.755Z,48.74
2019-03-21T07:33:30.657Z,47.92
2019-03-21T07:35:56.582Z,47.63
2019-03-21T07:38:22.452Z,47.67
2019-03-21T07:40:48.294Z,47.15
2019-03-21T07:43:14.155Z,47.20
2019-03-21T07:45:40.052Z,47.24
2019-03-21T07:48:05.981Z,47.15
2019-03-21T07:50:31.935Z,47.01
2019-03-21T07:52:57.798Z,46.93
2019-03-21T07:55:23.759Z,46.63
2019-03-21T07:57:49.735Z,46.03
2019-03-21T08:00:17.093Z,45.47
2019-03-21T08:02:43.147Z,44.29
2019-03-21T08:05:10.228Z,44.25
2019-03-21T08:07:36.082Z,43.89
2019-03-21T08:10:04.339Z,43.55
2019-03-21T08:12:30.308Z,43.22
2019-03-21T08:14:56.261Z,42.22
2019-03-21T08:17:22.070Z,41.55
2019-03-21T08:19:47.944Z,41.62
2019-03-21T08:22:13.805Z,41.67
2019-03-21T08:24:39.803Z,41.63
2019-03-21T08:27:05.784Z,41.14
2019-03-21T08:29:32.103Z,40.76
2019-03-21T08:31:57.944Z,40.57
2019-03-21T08:34:23.779Z,39.71
2019-03-21T08:36:49.708Z,39.50
2019-03-21T08:39:15.707Z,38.77
2019-03-21T08:41:41.553Z,39.03
2019-03-21T08:44:07.589Z,37.54
2019-03-21T08:46:33.430Z,37.69
2019-03-21T08:48:59.358Z,37.64
2019-03-21T08:51:25.408Z,37.42
2019-03-21T08:53:51.588Z,37.22
2019-03-21T08:56:17.435Z,37.06
2019-03-21T08:58:43.654Z,37.05
2019-03-21T09:01:09.702Z,36.55
2019-03-21T09:03:35.640Z,36.45
2019-03-21T09:06:01.575Z,36.38
2019-03-21T09:08:27.475Z,36.38
2019-03-21T09:10:53.325Z,36.16
2019-03-21T09:13:19.150Z,35.88
2019-03-21T09:15:45.187Z,35.31
2019-03-21T09:18:11.051Z,35.88
2019-03-21T09:20:37.087Z,35.45
2019-03-21T09:23:03.073Z,34.85
2019-03-21T09:25:28.967Z,35.00
2019-03-21T09:28:02.554Z,35.04
2019-03-21T09:30:22.842Z,35.23
2019-03-21T09:32:48.686Z,35.35
2019-03-21T09:35:14.778Z,34.55
2019-03-21T09:37:40.615Z,33.84
2019-03-21T09:40:09.390Z,33.17
2019-03-21T09:42:35.233Z,34.73
2019-03-21T09:45:01.270Z,34.96
2019-03-21T09:47:27.120Z,35.69
2019-03-21T09:49:53.059Z,34.99
2019-03-21T09:52:18.982Z,34.16
2019-03-21T09:54:44.930Z,33.72
2019-03-21T09:57:10.873Z,33.86
2019-03-21T09:59:36.715Z,33.74
2019-03-21T10:02:02.837Z,33.49
2019-03-21T10:04:28.709Z,33.05
2019-03-21T10:06:54.653Z,32.99
2019-03-21T10:09:20.611Z,33.11
2019-03-21T10:11:46.438Z,32.64
2019-03-21T10:14:12.282Z,32.84
2019-03-21T10:16:38.369Z,32.84
2019-03-21T10:19:04.303Z,32.45
2019-03-21T10:21:30.154Z,32.50
2019-03-21T10:23:59.056Z,32.08
2019-03-21T10:26:28.525Z,32.04
2019-03-21T10:28:54.359Z,31.85
2019-03-21T10:31:20.250Z,31.99
2019-03-21T10:33:46.085Z,31.59
2019-03-21T10:36:12.129Z,31.52
2019-03-21T10:38:38.309Z,30.89
2019-03-21T10:41:04.368Z,30.92
2019-03-21T10:43:30.230Z,31.03
2019-03-21T10:45:56.176Z,31.01
2019-03-21T10:48:23.565Z,31.07
2019-03-21T10:50:49.573Z,31.31
2019-03-21T10:53:15.463Z,31.47
2019-03-21T10:55:41.322Z,31.42
2019-03-21T10:58:07.834Z,31.82
2019-03-21T11:00:33.926Z,31.68
2019-03-21T11:03:00.000Z,31.06
2019-03-21T11:05:25.955Z,31.43
2019-03-21T11:07:52.033Z,32.05
2019-03-21T11:10:18.068Z,31.47
2019-03-21T11:12:43.920Z,30.87
2019-03-21T11:15:10.058Z,31.14
2019-03-21T11:17:36.004Z,31.65
2019-03-21T11:20:03.896Z,31.80
2019-03-21T11:22:29.806Z,31.55
2019-03-21T11:24:55.631Z,31.38
2019-03-21T11:27:21.735Z,31.27
2019-03-21T11:29:47.566Z,30.95
2019-03-21T11:32:13.655Z,30.59
2019-03-21T11:34:39.628Z,30.79
2019-03-21T11:37:05.443Z,30.65
2019-03-21T11:39:31.318Z,30.36
2019-03-21T11:41:57.172Z,30.46
2019-03-21T11:44:23.028Z,30.06
2019-03-21T11:46:48.897Z,29.71
2019-03-21T11:49:14.745Z,29.59
2019-03-21T11:51:40.688Z,29.82
2019-03-21T11:54:06.645Z,29.63
2019-03-21T11:56:32.493Z,29.34
2019-03-21T11:58:58.348Z,29.52
2019-03-21T12:01:24.278Z,29.23
2019-03-21T12:03:50.119Z,29.31
2019-03-21T12:06:16.001Z,29.88
2019-03-21T12:08:41.937Z,29.96
2019-03-21T12:11:07.878Z,30.27
2019-03-21T12:13:33.770Z,30.24
2019-03-21T12:15:59.598Z,30.47
2019-03-21T12:18:25.493Z,29.96
2019-03-21T12:20:51.340Z,29.79
2019-03-21T12:23:17.283Z,29.90
2019-03-21T12:25:43.098Z,29.56
2019-03-21T12:28:09.036Z,29.53
2019-03-21T12:30:36.444Z,28.70
2019-03-21T12:33:02.989Z,28.04
2019-03-21T12:35:29.066Z,27.92
2019-03-21T12:37:54.934Z,27.66
2019-03-21T12:40:20.880Z,27.63
2019-03-21T12:42:46.825Z,27.96
2019-03-21T12:45:12.972Z,27.42
2019-03-21T12:47:38.908Z,27.42
2019-03-21T12:50:06.846Z,27.79
2019-03-21T12:55:00.394Z,25.78
2019-03-21T12:56:21.938Z,27.38
2019-03-21T12:57:26.357Z,26.12
2019-03-21T12:59:52.418Z,25.06
2019-03-21T13:02:18.491Z,25.27
2019-03-21T13:04:44.444Z,24.47
2019-03-21T13:07:10.289Z,24.56
2019-03-21T13:09:38.474Z,23.57
2019-03-21T13:12:04.290Z,22.63
2019-03-21T13:14:30.111Z,21.14
2019-03-21T13:16:56.018Z,19.67
2019-03-21T13:19:21.877Z,18.36
2019-03-21T13:21:47.735Z,22.28
2019-03-21T13:24:16.417Z,22.87
2019-03-21T13:26:41.470Z,19.66
2019-03-21T13:29:07.359Z,24.92
2019-03-21T13:31:33.182Z,21.12
2019-03-21T13:34:02.947Z,21.30
2019-03-21T13:36:28.882Z,21.34
2019-03-21T13:38:54.835Z,22.55
2019-03-21T13:41:20.687Z,19.34
2019-03-21T13:43:46.571Z,20.40
2019-03-21T13:46:12.499Z,18.07
2019-03-21T13:48:38.499Z,18.09
2019-03-21T13:51:04.322Z,19.36
2019-03-21T13:53:30.231Z,18.47
2019-03-21T13:55:56.117Z,19.04
2019-03-21T13:58:21.999Z,19.28
2019-03-21T14:00:47.849Z,19.66
2019-03-21T14:03:24.647Z,18.66
2019-03-21T14:05:41.553Z,16.25
2019-03-21T14:08:07.413Z,16.36
2019-03-21T14:10:33.299Z,20.13
2019-03-21T14:12:59.247Z,17.62
2019-03-21T14:15:25.181Z,21.79
2019-03-21T14:17:51.084Z,21.67
2019-03-21T14:20:17.320Z,20.88
2019-03-21T14:22:43.193Z,20.69
2019-03-21T14:25:09.361Z,20.18
2019-03-21T14:27:35.389Z,18.57
2019-03-21T14:30:03.299Z,19.01
2019-03-21T14:32:29.142Z,17.58
2019-03-21T14:34:55.136Z,18.19
2019-03-21T14:37:21.093Z,20.90
2019-03-21T14:39:47.114Z,20.14
2019-03-21T14:42:13.150Z,21.13
2019-03-21T14:44:39.017Z,22.63
2019-03-21T14:47:04.977Z,20.82
2019-03-21T14:49:32.763Z,18.92
2019-03-21T14:51:58.618Z,19.23
2019-03-21T14:54:26.031Z,18.76
2019-03-21T14:56:52.053Z,20.90
2019-03-21T14:59:17.905Z,21.92
2019-03-21T15:01:43.906Z,19.50
2019-03-21T15:04:09.786Z,19.43
2019-03-21T15:06:35.615Z,20.82
2019-03-21T15:09:01.615Z,18.58
2019-03-21T15:11:27.548Z,19.66
2019-03-21T15:13:53.362Z,18.47
2019-03-21T15:16:19.340Z,20.80
2019-03-21T15:18:45.237Z,19.53
2019-03-21T15:21:11.159Z,19.12
2019-03-21T15:23:40.830Z,19.11
2019-03-21T15:26:04.772Z,18.39
2019-03-21T15:28:30.718Z,19.37
2019-03-21T15:30:56.724Z,21.59
2019-03-21T15:33:22.672Z,21.33
2019-03-21T15:35:48.625Z,21.49
2019-03-21T15:38:14.589Z,20.83
2019-03-21T15:40:40.415Z,21.16
2019-03-21T15:43:06.403Z,21.69
2019-03-21T15:45:32.447Z,22.03
2019-03-21T15:47:58.543Z,21.49
2019-03-21T15:50:29.875Z,20.08
2019-03-21T15:52:55.937Z,20.81
2019-03-21T15:55:21.789Z,21.50
2019-03-21T15:57:47.655Z,21.69
2019-03-21T16:00:17.455Z,22.51
2019-03-21T16:02:43.299Z,23.19
2019-03-21T16:05:09.340Z,24.90
2019-03-21T16:07:35.424Z,25.02
2019-03-21T16:10:01.610Z,23.80
2019-03-21T16:12:28.291Z,23.88
2019-03-21T16:14:54.120Z,24.37
2019-03-21T16:17:19.940Z,24.08
2019-03-21T16:19:45.887Z,26.66
2019-03-21T16:22:11.742Z,26.76
2019-03-21T16:24:37.622Z,26.43
2019-03-21T16:32:10.749Z,25.66
2019-03-21T16:34:36.692Z,25.59
2019-03-21T16:37:06.151Z,25.42
2019-03-21T16:39:32.111Z,26.05
2019-03-21T16:41:58.041Z,26.81
2019-03-21T16:44:23.972Z,26.86
2019-03-21T16:46:49.828Z,27.37
2019-03-21T16:49:15.687Z,27.59
2019-03-21T16:51:41.547Z,27.75
2019-03-21T16:54:16.557Z,28.17
2019-03-21T16:56:35.220Z,28.90
2019-03-21T16:59:01.057Z,30.02
2019-03-21T17:01:26.919Z,29.82
2019-03-21T17:03:52.807Z,29.88
2019-03-21T17:06:18.762Z,29.82
2019-03-21T17:08:44.719Z,30.52
2019-03-21T17:11:10.723Z,30.94
2019-03-21T17:13:36.674Z,31.12
2019-03-21T17:16:05.526Z,31.02
2019-03-21T17:18:30.498Z,31.10
2019-03-21T17:20:56.521Z,31.27
2019-03-21T17:23:22.378Z,31.57
2019-03-21T17:25:48.223Z,31.81
2019-03-21T17:28:14.162Z,31.90
2019-03-21T17:30:40.049Z,32.05
2019-03-21T17:33:06.079Z,32.04
2019-03-21T17:35:32.142Z,31.95
2019-03-21T17:37:58.046Z,32.06
2019-03-21T17:40:23.925Z,32.70
2019-03-21T17:42:49.916Z,32.63
2019-03-21T17:45:16.869Z,32.89
2019-03-21T17:47:42.949Z,32.55
2019-03-21T17:50:10.993Z,32.71
2019-03-21T17:52:36.845Z,33.14
2019-03-21T17:55:04.976Z,32.78
2019-03-21T17:57:34.765Z,32.94
2019-03-21T17:59:58.572Z,33.39
2019-03-21T18:02:24.948Z,33.48
2019-03-21T18:04:50.882Z,33.27
2019-03-21T18:07:16.914Z,33.67
2019-03-21T18:09:43.023Z,33.50
2019-03-21T18:12:08.844Z,33.94
2019-03-21T18:14:34.789Z,34.20
2019-03-21T18:17:01.338Z,34.45
2019-03-21T18:19:27.316Z,35.53
2019-03-21T18:21:53.243Z,36.99
2019-03-21T18:24:19.266Z,37.59
2019-03-21T18:26:45.055Z,38.07
2019-03-21T18:29:11.001Z,38.41
2019-03-21T18:31:36.872Z,38.66
2019-03-21T18:34:02.911Z,38.67
2019-03-21T18:36:29.218Z,38.96
2019-03-21T18:38:59.516Z,39.12
2019-03-21T18:41:23.136Z,38.73
2019-03-21T18:43:49.156Z,39.02
2019-03-21T18:46:15.020Z,39.18
2019-03-21T18:48:40.951Z,39.08
2019-03-21T18:51:06.929Z,39.33
2019-03-21T18:53:32.846Z,39.70
2019-03-21T18:55:58.785Z,40.17
2019-03-21T18:58:24.674Z,40.65
2019-03-21T19:00:50.590Z,40.80
2019-03-21T19:03:16.448Z,40.88
2019-03-21T19:05:42.293Z,40.49
2019-03-21T19:08:08.136Z,40.59
2019-03-21T19:10:34.479Z,41.10
2019-03-21T19:13:00.304Z,41.15
2019-03-21T19:15:26.194Z,41.34
2019-03-21T19:17:52.024Z,41.82
2019-03-21T19:20:18.218Z,42.09
2019-03-21T19:22:44.391Z,42.32
2019-03-21T19:25:18.327Z,42.19
2019-03-21T19:27:38.754Z,42.32
2019-03-21T19:30:08.202Z,42.42
2019-03-21T19:32:34.098Z,42.80
2019-03-21T19:35:00.038Z,42.58
2019-03-21T19:37:25.887Z,42.48
2019-03-21T19:39:55.539Z,42.13
2019-03-21T19:42:21.654Z,41.94
2019-03-21T19:44:47.626Z,42.57
2019-03-21T19:47:23.257Z,42.55
2019-03-21T19:49:41.174Z,42.47
2019-03-21T19:52:07.252Z,42.43
2019-03-21T19:54:33.197Z,42.55
2019-03-21T19:56:59.159Z,42.69
2019-03-21T19:59:25.095Z,42.88
2019-03-21T20:01:51.809Z,43.12
2019-03-21T20:04:17.665Z,43.34
2019-03-21T20:06:43.595Z,43.13
2019-03-21T20:09:09.505Z,43.07
2019-03-21T20:11:35.440Z,42.79
2019-03-21T20:14:03.861Z,42.56
2019-03-21T20:16:29.197Z,42.84
2019-03-21T20:18:55.152Z,43.19
2019-03-21T20:21:21.042Z,43.26
2019-03-21T20:23:46.879Z,43.63
2019-03-21T20:26:12.753Z,43.91
2019-03-21T20:28:38.740Z,44.22
2019-03-21T20:31:04.576Z,44.28
2019-03-21T20:33:30.528Z,44.26
2019-03-21T20:35:56.420Z,44.57
2019-03-21T20:38:22.244Z,44.77
2019-03-21T20:40:48.166Z,44.61
2019-03-21T20:43:14.058Z,44.94
2019-03-21T20:45:39.888Z,44.84
2019-03-21T20:48:05.849Z,45.26
2019-03-21T20:50:31.714Z,45.37
2019-03-21T20:52:57.537Z,45.67
2019-03-21T20:55:23.601Z,45.66
2019-03-21T20:57:49.535Z,45.54
2019-03-21T21:00:22.567Z,45.75
2019-03-21T21:02:48.882Z,45.88
2019-03-21T21:05:15.009Z,45.68
2019-03-21T21:07:40.977Z,45.97
2019-03-21T21:10:08.624Z,46.26
2019-03-21T21:12:36.407Z,46.25
2019-03-21T21:15:04.980Z,46.10
2019-03-21T21:17:30.892Z,46.02
2019-03-21T21:19:56.876Z,46.19
2019-03-21T21:22:22.752Z,46.29
2019-03-21T21:24:48.665Z,46.49
2019-03-21T21:27:14.552Z,46.75
2019-03-21T21:29:42.959Z,46.54
2019-03-21T21:32:08.326Z,46.64
2019-03-21T21:34:34.352Z,46.56
2019-03-21T21:37:00.282Z,46.67
2019-03-21T21:39:26.300Z,46.73
2019-03-21T21:41:52.198Z,46.80
2019-03-21T21:44:18.025Z,46.84
2019-03-21T21:46:43.872Z,46.88
2019-03-21T21:49:09.792Z,46.95
2019-03-21T21:51:35.657Z,47.02
2019-03-21T21:54:01.504Z,47.00
2019-03-21T21:56:27.339Z,46.95
2019-03-21T21:58:53.221Z,47.08
2019-03-21T22:01:19.319Z,47.16
2019-03-21T22:03:45.194Z,47.11
2019-03-21T22:06:11.047Z,46.88
2019-03-21T22:08:36.974Z,46.67
2019-03-21T22:11:03.042Z,46.53
2019-03-21T22:13:28.984Z,47.04
2019-03-21T22:15:54.802Z,47.34
2019-03-21T22:18:20.643Z,47.90
2019-03-21T22:20:46.535Z,47.90
2019-03-21T22:23:12.348Z,48.34
2019-03-21T22:25:38.296Z,48.59
2019-03-21T22:28:04.343Z,48.59
2019-03-21T22:30:30.180Z,48.60
2019-03-21T22:32:56.010Z,48.83
2019-03-21T22:35:21.958Z,48.94
2019-03-21T22:37:48.069Z,48.88
2019-03-21T22:40:15.310Z,48.82
2019-03-21T22:42:45.148Z,48.79
2019-03-21T22:45:12.819Z,49.25
2019-03-21T22:47:39.050Z,49.62
2019-03-21T22:50:14.745Z,49.39
2019-03-21T22:52:40.321Z,49.41
2019-03-21T22:55:06.753Z,49.25
2019-03-21T22:57:32.643Z,49.40
2019-03-21T22:59:58.480Z,49.39
2019-03-21T23:02:24.423Z,49.45
2019-03-21T23:04:50.359Z,49.46
2019-03-21T23:07:16.611Z,49.57
2019-03-21T23:09:42.451Z,49.05
2019-03-21T23:12:08.296Z,49.15
2019-03-21T23:14:34.127Z,49.17
2019-03-21T23:16:59.946Z,49.21
2019-03-21T23:19:25.971Z,49.27
2019-03-21T23:21:51.924Z,49.47
2019-03-21T23:24:17.888Z,49.40
2019-03-21T23:26:52.520Z,49.58
2019-03-21T23:29:11.576Z,49.64
2019-03-21T23:31:37.502Z,49.51
2019-03-21T23:34:03.352Z,49.64
2019-03-21T23:36:29.189Z,49.72
2019-03-21T23:38:55.164Z,49.91
2019-03-21T23:41:21.007Z,50.13
2019-03-21T23:43:46.891Z,50.54
2019-03-21T23:46:12.956Z,50.86
2019-03-21T23:48:38.786Z,51.34
2019-03-21T23:51:04.717Z,51.47
2019-03-21T23:53:30.603Z,51.48
2019-03-21T23:55:56.514Z,51.59
2019-03-21T23:58:22.462Z,51.47
